Seattle, WA (98126)

10:53 PM PDT on October 22, 2014 (GMT -0700)
Alaska Junction | Change Station
CLOSE
Current Station
Personal Weather Station
Location: Seattle, WA
Elevation: 308 ft
Nearby Weather Stations

Elev 308 ft 47.56 °N, 122.39 °W | Updated 1 second ago

Mostly Cloudy
Mostly Cloudy
55.8 °F
Feels Like 55.8 °F
N
9.2
Wind Variable Wind from South
Gusts 9.2 mph

Today
High -- | Low -- °F
--% Chance of Precip.
Yesterday
High -- | Low -- °F
Precip. -- in
7:38 AM 6:08 PM
Waning Crescent, 0% visible
Pressure 29.64 in
Visibility 10.0 miles
Clouds Scattered Clouds 3000 ft
Mostly Cloudy 4000 ft
Mostly Cloudy 6000 ft
Dew Point 53 °F
Humidity 91%
Rainfall 1.51 in
Snow Depth Not available.
UV 0 out of 12
Pollen .40 out of 12
Air Quality Not available.
Flu Activity Sporadic
METAR KBFI 230453Z 17007KT 10SM SCT030 BKN040 BKN060 16/11 A2963 RMK AO2 RAE50 SLP035 P0001 T01560111

More Conditions Fewer Conditions

Pressure 29.64 in
Visibility 10.0 miles
Clouds Scattered Clouds 3000 ft
Mostly Cloudy 4000 ft
Mostly Cloudy 6000 ft
Dew Point 53 °F
Humidity 91%
Rainfall 1.51 in
Snow Depth Not available.
UV 0 out of 12
Pollen .40 out of 12
Air Quality Not available.
Flu Activity Sporadic
METAR KBFI 230453Z 17007KT 10SM SCT030 BKN040 BKN060 16/11 A2963 RMK AO2 RAE50 SLP035 P0001 T01560111

More Conditions Fewer Conditions

10-Day Weather Forecast

Almanac

Astronomy

Oct. 22, 2014 Rise Set
Actual Time 7:38 AM PDT 6:08 PM PDT
Civil Twilight 7:07 AM PDT 6:39 PM PDT
Nautical Twilight 6:31 AM PDT 7:15 PM PDT
Astronomical Twilight 5:55 AM PDT 7:51 PM PDT
Moon 6:20 AM PDT (10/22) 5:41 PM PDT (10/22)
Length of Visible Light 11h 32m
Length of Day
10h 29m
Tomorrow will be 3m 14s shorter.
Waning Crescent, 0% of the Moon is Illuminated
Oct 23
Waning Crescent
Oct 23
New
Oct 30
First Quarter
Nov 6
Full
Nov 14
Last Quarter

Yesterday's Extremes

State Highs State Lows

Community

WunderPhotos

Upload Photos

1,764,188 photos uploaded!

Nearby

Air Quality

  Air Quality AQ Index Pollutant
Wednesday Good
PM2.5
Thursday Good
PM2.5
Friday Good
PM2.5
Saturday Good
PM2.5
Sunday Good
PM2.5
Monday Good
PM2.5

Snow Depth

Station Depth Elevation
Alpine Meadows 0 in 3500 ft
Skookum Creek 0 in 3920 ft
Mount Gardner 0 in 3000 ft
Dungeness 0 in 4100 ft
Olallie Meadows 1 in 3700 ft

Earthquake Activity

City Distance Mag. Time & Date
No recent earthquake activity has been reported nearby.
Minimum magnitude displayed is 2.5.

Coastal Water Temperatures

Place Temperature
Port Townsend, WA 53.1 °F
Seattle, WA 55.0 °F
Friday Harbor, WA 51.1 °F
Tacoma, WA 55.0 °F

Nearby Weather Stations